Time;durP1;ratioP1;P1;durP2;ratioP2;P2;SDS_P1;SDS_P2;PMS_P1;PMS_P2;Temp;Humidity;BMP_temperature;BMP_pressure;BME280_temperature;BME280_humidity;BME280_pressure;Samples;Min_cycle;Max_cycle;Signal;HPM_P1;HPM_P2
2023/11/14 00:02:28;;;;;;;16.37;5.10;;;10.70;99.90;;;;;;5118983;28;20558;-60
2023/11/14 00:04:55;;;;;;;24.30;5.97;;;10.70;99.90;;;;;;5119424;28;20457;-60
2023/11/14 00:07:23;;;;;;;36.70;6.60;;;10.70;99.90;;;;;;5119188;28;20455;-60
2023/11/14 00:09:50;;;;;;;20.57;5.80;;;10.70;99.90;;;;;;5119412;28;20462;-59
2023/11/14 00:12:19;;;;;;;21.13;6.10;;;10.70;99.90;;;;;;5118961;28;20485;-61
2023/11/14 00:14:49;;;;;;;23.77;5.30;;;10.70;99.90;;;;;;5118499;28;20548;-60
2023/11/14 00:17:16;;;;;;;18.13;5.80;;;10.80;99.90;;;;;;5119132;28;20463;-60
2023/11/14 00:19:45;;;;;;;18.80;5.80;;;10.80;99.90;;;;;;5119256;28;20455;-60
2023/11/14 00:22:12;;;;;;;30.50;6.47;;;10.80;99.90;;;;;;5118821;28;20455;-60
2023/11/14 00:24:40;;;;;;;25.90;8.27;;;10.80;99.90;;;;;;5118759;28;20753;-59
2023/11/14 00:27:07;;;;;;;24.60;6.90;;;10.80;99.90;;;;;;5118714;28;20455;-60
2023/11/14 00:29:35;;;;;;;22.93;7.50;;;10.80;99.90;;;;;;5118379;28;20456;-61
2023/11/14 00:32:03;;;;;;;19.03;6.07;;;10.80;99.90;;;;;;5117975;28;20506;-59
2023/11/14 00:34:31;;;;;;;27.97;6.23;;;10.80;99.90;;;;;;5118392;28;20488;-60
2023/11/14 00:36:59;;;;;;;27.90;8.00;;;10.80;99.90;;;;;;5118524;28;20956;-60
2023/11/14 00:39:27;;;;;;;26.13;6.10;;;10.80;99.90;;;;;;5118110;28;20488;-59
2023/11/14 00:41:54;;;;;;;22.63;6.90;;;10.80;99.90;;;;;;5118639;28;20487;-59
2023/11/14 00:44:24;;;;;;;30.20;5.67;;;10.80;99.90;;;;;;5118139;28;20459;-60
2023/11/14 00:46:51;;;;;;;27.43;6.83;;;10.80;99.90;;;;;;5118697;28;20459;-59
2023/11/14 00:49:18;;;;;;;20.63;5.43;;;10.80;99.90;;;;;;5118442;28;20460;-60
2023/11/14 00:51:47;;;;;;;33.03;6.90;;;10.80;99.90;;;;;;5118338;28;20456;-60
2023/11/14 00:54:15;;;;;;;21.30;5.87;;;10.80;99.90;;;;;;5118055;28;20534;-59
2023/11/14 00:56:43;;;;;;;25.63;6.30;;;10.80;99.90;;;;;;5118204;28;20500;-60
2023/11/14 00:59:10;;;;;;;17.20;5.90;;;10.80;99.90;;;;;;5118111;28;20904;-59
2023/11/14 01:01:37;;;;;;;21.80;6.70;;;10.80;99.90;;;;;;5117286;28;20465;-59
2023/11/14 01:04:05;;;;;;;17.70;5.87;;;10.80;99.90;;;;;;5117666;28;20451;-59
2023/11/14 01:06:32;;;;;;;17.63;6.17;;;10.80;99.90;;;;;;5117909;28;20499;-59
2023/11/14 01:09:00;;;;;;;22.67;6.93;;;10.80;99.90;;;;;;5117402;28;20452;-59
2023/11/14 01:11:29;;;;;;;25.40;6.60;;;10.80;99.90;;;;;;5118499;28;20903;-59
2023/11/14 01:13:57;;;;;;;27.30;6.67;;;10.80;99.90;;;;;;5117442;28;20522;-60
2023/11/14 01:16:24;;;;;;;26.67;6.30;;;10.80;99.90;;;;;;5117674;28;20497;-59
2023/11/14 01:18:51;;;;;;;23.97;6.47;;;10.80;99.90;;;;;;5117731;28;20463;-60
2023/11/14 01:21:19;;;;;;;15.87;5.23;;;10.80;99.90;;;;;;5118171;28;20455;-59
2023/11/14 01:23:46;;;;;;;27.17;6.07;;;10.80;99.90;;;;;;5117401;28;20456;-59
2023/11/14 01:26:14;;;;;;;26.53;6.60;;;10.80;99.90;;;;;;5117656;28;20459;-59
2023/11/14 01:28:43;;;;;;;26.80;5.63;;;10.80;99.90;;;;;;5117579;28;20904;-59
2023/11/14 01:31:20;;;;;;;24.93;7.00;;;10.90;99.90;;;;;;5117981;28;20459;-60
2023/11/14 01:33:50;;;;;;;21.03;6.37;;;10.90;99.90;;;;;;5117796;28;20459;-59
2023/11/14 01:36:18;;;;;;;28.07;7.00;;;10.90;99.90;;;;;;5117474;28;20547;-59
2023/11/14 01:38:45;;;;;;;26.77;7.53;;;10.90;99.90;;;;;;5122042;28;20976;-59
2023/11/14 01:41:13;;;;;;;22.27;6.87;;;10.90;99.90;;;;;;5124836;28;20553;-59
2023/11/14 01:43:45;;;;;;;26.03;7.10;;;10.90;99.90;;;;;;5124848;28;20455;-59
2023/11/14 01:46:16;;;;;;;25.33;7.63;;;10.90;99.90;;;;;;5124198;28;20542;-59
2023/11/14 01:48:45;;;;;;;21.50;6.20;;;10.90;99.90;;;;;;5124569;28;20462;-60
2023/11/14 01:51:12;;;;;;;21.30;6.73;;;10.90;99.90;;;;;;5124790;28;20717;-60
2023/11/14 01:53:40;;;;;;;19.00;5.80;;;10.90;99.90;;;;;;5124501;28;20538;-59
2023/11/14 01:56:09;;;;;;;22.90;6.97;;;10.90;99.90;;;;;;5124240;28;20468;-59
2023/11/14 01:58:37;;;;;;;21.20;6.33;;;10.90;99.90;;;;;;5124167;28;20455;-58
2023/11/14 02:01:06;;;;;;;22.37;6.40;;;11.00;99.90;;;;;;5123918;28;20460;-59
2023/11/14 02:03:34;;;;;;;27.30;7.83;;;10.90;99.90;;;;;;5122617;28;20459;-59
2023/11/14 02:06:01;;;;;;;21.40;6.60;;;10.90;99.90;;;;;;5124047;28;20456;-59
2023/11/14 02:08:31;;;;;;;24.57;6.43;;;10.90;99.90;;;;;;5124468;28;20557;-59
2023/11/14 02:10:58;;;;;;;30.50;6.23;;;10.90;99.90;;;;;;5123987;28;20571;-64
2023/11/14 02:13:26;;;;;;;21.70;7.00;;;10.90;1.00;;;;;;5124441;28;20459;-59
2023/11/14 02:15:53;;;;;;;19.50;6.10;;;10.90;99.90;;;;;;5123909;28;20530;-59
2023/11/14 02:18:22;;;;;;;28.97;6.50;;;10.90;99.90;;;;;;5123960;28;20951;-59
2023/11/14 02:20:49;;;;;;;24.63;6.00;;;10.90;99.90;;;;;;5124353;28;20730;-59
2023/11/14 02:23:18;;;;;;;33.43;7.83;;;10.90;99.90;;;;;;5124219;28;20740;-59
2023/11/14 02:25:47;;;;;;;18.77;6.63;;;10.90;99.90;;;;;;5124153;28;20557;-59
2023/11/14 02:28:14;;;;;;;17.37;5.40;;;10.90;30.00;;;;;;5123926;28;20565;-59
2023/11/14 02:30:42;;;;;;;21.17;6.67;;;10.90;99.90;;;;;;5122903;28;20516;-59
2023/11/14 02:33:09;;;;;;;21.20;6.60;;;10.90;99.90;;;;;;5123966;28;20462;-58
2023/11/14 02:35:37;;;;;;;25.00;6.37;;;10.90;99.90;;;;;;5123975;28;20487;-59
2023/11/14 02:38:04;;;;;;;27.50;8.03;;;10.90;99.90;;;;;;5123565;28;20502;-58
2023/11/14 02:40:31;;;;;;;21.73;6.93;;;10.80;99.90;;;;;;5123643;28;20462;-58
2023/11/14 02:43:00;;;;;;;24.93;6.43;;;10.80;99.90;;;;;;5123782;28;20549;-58
2023/11/14 02:45:27;;;;;;;21.20;5.87;;;10.90;1.00;;;;;;5123862;28;20447;-59
2023/11/14 02:47:55;;;;;;;22.13;6.30;;;10.80;99.90;;;;;;5123440;28;20455;-59
2023/11/14 02:50:49;;;;;;;22.97;6.07;;;10.80;99.90;;;;;;5121090;28;20465;-58
2023/11/14 02:53:16;;;;;;;20.73;6.27;;;10.80;99.90;;;;;;5120956;28;20733;-58
2023/11/14 02:55:44;;;;;;;23.93;6.70;;;10.80;1.00;;;;;;5120914;28;20490;-58
2023/11/14 02:58:13;;;;;;;29.37;8.53;;;10.80;99.90;;;;;;5120191;28;20466;-58
2023/11/14 03:00:42;;;;;;;26.53;7.20;;;10.80;99.90;;;;;;5120276;28;20463;-58
2023/11/14 03:03:10;;;;;;;29.73;7.60;;;10.80;99.90;;;;;;5120457;28;20460;-59
2023/11/14 03:05:37;;;;;;;21.23;5.70;;;10.80;99.90;;;;;;5120658;28;20884;-58
2023/11/14 03:08:05;;;;;;;22.53;5.60;;;10.80;99.90;;;;;;5119874;28;20459;-59
2023/11/14 03:10:32;;;;;;;21.30;5.77;;;10.80;99.90;;;;;;5119685;28;20558;-58
2023/11/14 03:13:00;;;;;;;19.17;6.00;;;10.80;99.90;;;;;;5120073;28;20512;-57
2023/11/14 03:15:28;;;;;;;21.37;6.83;;;10.80;96.80;;;;;;5119606;28;20498;-59
2023/11/14 03:17:56;;;;;;;25.70;6.80;;;10.80;99.90;;;;;;5119817;28;20506;-58
2023/11/14 03:20:23;;;;;;;31.87;7.47;;;10.80;99.90;;;;;;5120098;28;20457;-59
2023/11/14 03:22:51;;;;;;;23.30;8.20;;;10.80;99.90;;;;;;5120168;28;20498;-58
2023/11/14 03:25:18;;;;;;;20.90;6.80;;;10.80;99.90;;;;;;5120191;28;20459;-59
2023/11/14 03:27:45;;;;;;;22.00;6.77;;;10.80;99.90;;;;;;5120257;28;20468;-59
2023/11/14 03:30:13;;;;;;;22.47;7.57;;;10.80;99.90;;;;;;5119673;28;20520;-58
2023/11/14 03:32:42;;;;;;;20.23;6.13;;;10.80;99.90;;;;;;5119836;28;20489;-58
2023/11/14 03:35:10;;;;;;;26.30;7.63;;;10.80;99.90;;;;;;5119571;28;20497;-59
2023/11/14 03:37:38;;;;;;;22.70;6.50;;;10.80;99.90;;;;;;5120078;28;20880;-61
2023/11/14 03:40:06;;;;;;;16.57;6.37;;;10.80;99.90;;;;;;5119481;28;20487;-59
2023/11/14 03:42:33;;;;;;;28.80;5.57;;;10.80;99.90;;;;;;5119525;28;20466;-59
2023/11/14 03:45:00;;;;;;;32.77;7.37;;;10.80;99.90;;;;;;5119887;28;20460;-59
2023/11/14 03:47:27;;;;;;;26.23;6.33;;;10.80;99.90;;;;;;5119904;28;20459;-58
2023/11/14 03:49:56;;;;;;;23.83;6.20;;;10.80;99.90;;;;;;5119007;28;20460;-59
2023/11/14 03:52:25;;;;;;;21.10;6.67;;;10.80;99.90;;;;;;5119485;28;20578;-58
2023/11/14 03:54:52;;;;;;;28.10;7.27;;;10.80;99.90;;;;;;5119480;28;20751;-59
2023/11/14 03:57:21;;;;;;;25.93;7.50;;;10.80;99.90;;;;;;5119627;28;20462;-59
2023/11/14 03:59:48;;;;;;;31.77;8.50;;;10.80;99.90;;;;;;5119428;28;20455;-58
2023/11/14 04:02:15;;;;;;;17.30;6.33;;;10.80;99.90;;;;;;5123489;27;20447;-58
2023/11/14 04:04:42;;;;;;;23.73;7.00;;;10.80;99.90;;;;;;5139280;27;20450;-58
2023/11/14 04:07:11;;;;;;;22.80;6.80;;;10.80;99.90;;;;;;5139815;27;20557;-60
2023/11/14 04:09:40;;;;;;;22.17;6.47;;;10.80;1.00;;;;;;5139821;27;20455;-58
2023/11/14 04:12:08;;;;;;;19.27;6.63;;;10.80;99.90;;;;;;5139229;27;20455;-57
2023/11/14 04:14:35;;;;;;;21.80;6.27;;;10.80;99.90;;;;;;5139351;27;20459;-58
2023/11/14 04:17:03;;;;;;;23.70;7.47;;;10.80;99.90;;;;;;5139786;27;20553;-58
2023/11/14 04:19:30;;;;;;;28.80;7.10;;;10.80;99.90;;;;;;5140011;27;20738;-59
2023/11/14 04:21:57;;;;;;;30.80;6.00;;;10.80;99.90;;;;;;5139061;27;20458;-59
2023/11/14 04:24:26;;;;;;;25.57;7.40;;;10.80;99.90;;;;;;5139342;27;20554;-58
2023/11/14 04:26:53;;;;;;;21.23;6.13;;;10.80;99.90;;;;;;5139409;27;20465;-59
2023/11/14 04:29:20;;;;;;;27.20;6.17;;;10.80;99.90;;;;;;5138855;27;20897;-58
2023/11/14 04:31:47;;;;;;;29.40;6.80;;;10.80;99.90;;;;;;5138946;27;20455;-58
2023/11/14 04:34:15;;;;;;;25.27;6.30;;;10.80;99.90;;;;;;5138656;27;20455;-58
2023/11/14 04:36:42;;;;;;;24.27;6.70;;;10.80;99.90;;;;;;5138939;27;20491;-58
2023/11/14 04:39:09;;;;;;;23.20;6.60;;;10.80;99.90;;;;;;5139138;27;20482;-58
2023/11/14 04:41:38;;;;;;;18.47;6.20;;;10.80;99.90;;;;;;5139300;27;20463;-60
2023/11/14 04:44:06;;;;;;;21.53;5.10;;;10.80;99.90;;;;;;5138851;27;20454;-58
2023/11/14 04:46:33;;;;;;;23.83;6.57;;;10.80;99.90;;;;;;5138475;27;20454;-59
2023/11/14 04:49:00;;;;;;;19.60;6.13;;;10.80;99.90;;;;;;5139116;27;20545;-58
2023/11/14 04:51:27;;;;;;;28.10;7.17;;;10.80;99.90;;;;;;5139049;27;20885;-57
2023/11/14 04:53:54;;;;;;;25.83;7.00;;;10.80;99.90;;;;;;5138859;27;20868;-55
2023/11/14 04:56:22;;;;;;;21.33;4.97;;;10.80;99.90;;;;;;5138581;27;20774;-59
2023/11/14 04:58:50;;;;;;;23.10;6.13;;;10.80;99.90;;;;;;5138672;27;20822;-57
2023/11/14 05:01:18;;;;;;;27.20;6.20;;;10.90;99.90;;;;;;5139082;27;20455;-58
2023/11/14 05:03:45;;;;;;;24.90;6.03;;;10.90;99.90;;;;;;5139082;27;20465;-57
2023/11/14 05:06:12;;;;;;;20.77;5.90;;;10.90;99.90;;;;;;5138060;27;20457;-62
2023/11/14 05:08:40;;;;;;;22.43;6.20;;;10.80;99.90;;;;;;5138526;27;20959;-55
2023/11/14 05:11:07;;;;;;;20.83;6.20;;;10.80;99.90;;;;;;5138687;27;20524;-57
2023/11/14 05:13:35;;;;;;;18.30;5.60;;;10.90;99.90;;;;;;5137996;27;20512;-58
2023/11/14 05:16:05;;;;;;;22.90;6.63;;;10.90;99.90;;;;;;5138544;27;20533;-57
2023/11/14 05:18:32;;;;;;;23.13;7.10;;;10.90;99.90;;;;;;5138726;27;20455;-57
2023/11/14 05:21:00;;;;;;;21.60;7.80;;;10.90;99.90;;;;;;5138390;27;20456;-57
2023/11/14 05:23:27;;;;;;;20.77;6.30;;;10.90;99.90;;;;;;5138309;27;20454;-57
2023/11/14 05:25:54;;;;;;;20.90;5.40;;;10.90;99.90;;;;;;5138151;27;20742;-56
2023/11/14 05:28:22;;;;;;;22.80;6.57;;;10.90;99.90;;;;;;5138249;27;20455;-57
2023/11/14 05:30:49;;;;;;;23.73;5.90;;;10.90;99.90;;;;;;5137331;27;20552;-58
2023/11/14 05:33:18;;;;;;;20.43;6.23;;;10.80;99.90;;;;;;5138472;27;20458;-57
2023/11/14 05:35:45;;;;;;;17.00;4.37;;;10.90;99.90;;;;;;5138363;27;20491;-56
2023/11/14 05:38:12;;;;;;;24.37;6.90;;;10.90;99.90;;;;;;5137649;28;20484;-55
2023/11/14 05:40:40;;;;;;;20.17;7.00;;;10.90;99.90;;;;;;5138351;28;20780;-58
2023/11/14 05:43:07;;;;;;;17.90;6.63;;;11.00;99.90;;;;;;5138131;28;20454;-58
2023/11/14 05:45:35;;;;;;;25.43;7.30;;;11.00;24.00;;;;;;5138155;28;20553;-59
2023/11/14 05:48:04;;;;;;;22.93;7.90;;;11.00;1.00;;;;;;5138160;28;20511;-58
2023/11/14 05:50:34;;;;;;;25.00;6.70;;;11.00;1.00;;;;;;5138343;28;20462;-58
2023/11/14 05:53:01;;;;;;;26.20;6.10;;;11.00;1.00;;;;;;5137711;28;20461;-58
2023/11/14 05:55:28;;;;;;;19.07;6.80;;;11.00;1.00;;;;;;5137937;28;20486;-57
2023/11/14 05:57:56;;;;;;;26.63;9.43;;;11.00;1.00;;;;;;5137641;28;20549;-59
2023/11/14 06:00:24;;;;;;;24.90;6.13;;;11.00;1.00;;;;;;5137649;28;20516;-56
2023/11/14 06:02:52;;;;;;;34.23;7.47;;;11.00;1.00;;;;;;5138060;28;20508;-57
2023/11/14 06:05:20;;;;;;;25.87;6.90;;;11.00;1.00;;;;;;5137961;28;20789;-56
2023/11/14 06:07:48;;;;;;;28.27;6.73;;;11.00;1.00;;;;;;5137990;28;20461;-57
2023/11/14 06:10:16;;;;;;;21.20;6.70;;;11.00;1.00;;;;;;5137211;28;20558;-57
2023/11/14 06:12:43;;;;;;;17.97;5.90;;;11.00;1.00;;;;;;5137494;28;20617;-58
2023/11/14 06:15:13;;;;;;;22.93;6.07;;;11.00;1.00;;;;;;5137428;28;20454;-58
2023/11/14 06:17:40;;;;;;;21.77;7.20;;;11.00;1.00;;;;;;5137834;28;20824;-55
2023/11/14 06:20:09;;;;;;;23.43;5.77;;;11.00;1.00;;;;;;5137393;28;20454;-57
2023/11/14 06:22:37;;;;;;;20.93;5.90;;;11.10;1.00;;;;;;5137248;28;20458;-56
2023/11/14 06:25:07;;;;;;;24.20;6.13;;;11.00;1.00;;;;;;5140489;27;20800;-58
2023/11/14 06:27:34;;;;;;;22.30;5.50;;;11.00;1.00;;;;;;5141879;27;20465;-56
2023/11/14 06:30:02;;;;;;;24.10;7.23;;;11.00;1.00;;;;;;5141076;27;20455;-56
2023/11/14 06:32:29;;;;;;;20.53;5.90;;;11.00;1.00;;;;;;5141465;27;20462;-57
2023/11/14 06:34:57;;;;;;;22.43;6.07;;;11.00;1.00;;;;;;5141631;27;20461;-57
2023/11/14 06:37:24;;;;;;;22.73;6.40;;;11.00;1.00;;;;;;5142034;27;20915;-56
2023/11/14 06:39:52;;;;;;;18.90;5.83;;;11.00;1.00;;;;;;5140397;27;20975;-60
2023/11/14 06:42:20;;;;;;;29.70;6.00;;;11.00;1.00;;;;;;5141173;27;20454;-59
2023/11/14 06:44:47;;;;;;;25.33;7.80;;;11.00;29.60;;;;;;5141339;27;20553;-58
2023/11/14 06:47:15;;;;;;;26.10;5.43;;;11.00;46.70;;;;;;5141693;27;20998;-59
2023/11/14 06:49:43;;;;;;;18.43;6.07;;;11.00;1.00;;;;;;5141571;27;20553;-58
2023/11/14 06:52:10;;;;;;;21.60;5.53;;;11.00;1.00;;;;;;5140700;27;20867;-59
2023/11/14 06:54:38;;;;;;;28.30;7.30;;;11.00;1.00;;;;;;5138897;27;20769;-56
2023/11/14 06:57:09;;;;;;;24.93;6.33;;;11.10;1.00;;;;;;5138991;27;20482;-60
2023/11/14 06:59:38;;;;;;;23.80;6.57;;;11.00;1.00;;;;;;5139491;27;20455;-58
2023/11/14 07:02:08;;;;;;;21.63;6.27;;;11.10;1.00;;;;;;5139244;27;20455;-59
2023/11/14 07:04:36;;;;;;;24.87;6.63;;;11.10;1.00;;;;;;5139095;27;20879;-57
2023/11/14 07:07:04;;;;;;;19.00;6.00;;;11.10;1.00;;;;;;5139373;27;20426;-58
2023/11/14 07:09:31;;;;;;;30.50;8.33;;;11.10;1.00;;;;;;5140921;27;20494;-59
2023/11/14 07:11:58;;;;;;;27.73;6.67;;;11.10;1.00;;;;;;5140527;27;20454;-58
2023/11/14 07:14:26;;;;;;;21.50;5.97;;;11.10;9.60;;;;;;5140796;27;20828;-59
2023/11/14 07:16:54;;;;;;;25.77;6.50;;;11.10;5.80;;;;;;5140734;27;20520;-58
2023/11/14 07:19:22;;;;;;;32.27;7.90;;;11.10;1.00;;;;;;5140716;27;20464;-58
2023/11/14 07:21:49;;;;;;;18.00;6.33;;;11.10;17.20;;;;;;5140815;27;20461;-59
2023/11/14 07:24:17;;;;;;;21.43;6.33;;;11.10;25.00;;;;;;5140320;27;20988;-59
2023/11/14 07:26:45;;;;;;;20.00;6.37;;;11.20;92.80;;;;;;5139558;27;20549;-58
2023/11/14 07:29:13;;;;;;;24.80;6.87;;;11.10;2.90;;;;;;5139193;27;20455;-58
2023/11/14 07:31:42;;;;;;;21.93;6.00;;;11.10;40.20;;;;;;5140060;27;20944;-58
2023/11/14 07:34:10;;;;;;;24.47;5.20;;;11.10;1.00;;;;;;5139170;27;21103;-57
2023/11/14 07:36:38;;;;;;;21.07;6.30;;;11.20;1.00;;;;;;5138017;27;20794;-58
2023/11/14 07:39:06;;;;;;;19.70;7.40;;;11.20;1.00;;;;;;5138578;27;20850;-58
2023/11/14 07:41:34;;;;;;;21.67;6.30;;;11.20;1.00;;;;;;5138573;27;20451;-59
2023/11/14 07:44:01;;;;;;;23.10;7.37;;;11.20;1.00;;;;;;5140223;27;20897;-61
2023/11/14 07:46:27;;;;;;;18.47;6.87;;;11.20;1.00;;;;;;5140069;27;20917;-60
2023/11/14 07:48:55;;;;;;;18.63;6.70;;;11.20;1.00;;;;;;5140757;27;20745;-59
2023/11/14 07:51:24;;;;;;;28.87;7.77;;;11.20;1.00;;;;;;5140540;27;20455;-59
2023/11/14 07:53:53;;;;;;;14.37;4.97;;;11.20;33.00;;;;;;5139968;27;20936;-58
2023/11/14 07:56:21;;;;;;;20.97;5.80;;;11.20;1.00;;;;;;5139967;27;20524;-58
2023/11/14 07:58:48;;;;;;;23.67;6.30;;;11.20;1.00;;;;;;5139492;27;20446;-58
2023/11/14 08:01:15;;;;;;;21.00;5.93;;;11.20;78.50;;;;;;5139499;27;20822;-59
2023/11/14 08:03:45;;;;;;;23.70;6.80;;;11.20;97.60;;;;;;5138743;27;20905;-59
2023/11/14 08:06:12;;;;;;;15.90;5.87;;;11.10;99.90;;;;;;5139623;27;20454;-58
2023/11/14 08:08:42;;;;;;;18.30;6.90;;;11.20;99.90;;;;;;5139453;27;20557;-58
2023/11/14 08:11:11;;;;;;;17.47;5.97;;;11.20;99.90;;;;;;5139463;27;20542;-59
2023/11/14 08:13:38;;;;;;;24.90;6.90;;;11.20;69.80;;;;;;5139955;27;20569;-58
2023/11/14 08:16:07;;;;;;;34.87;7.37;;;11.20;99.90;;;;;;5139578;27;20489;-58
2023/11/14 08:18:34;;;;;;;20.40;7.87;;;11.20;93.10;;;;;;5139716;27;20511;-59
2023/11/14 08:21:01;;;;;;;17.20;5.77;;;11.30;99.90;;;;;;5139505;27;20461;-58
2023/11/14 08:23:28;;;;;;;30.20;11.60;;;11.30;28.10;;;;;;5138026;27;20523;-59
2023/11/14 08:25:57;;;;;;;15.10;4.90;;;11.30;20.60;;;;;;5137391;27;20557;-59
2023/11/14 08:28:25;;;;;;;20.80;6.60;;;11.30;1.00;;;;;;5137630;27;20455;-59
2023/11/14 08:30:53;;;;;;;25.60;6.33;;;11.40;1.00;;;;;;5137883;27;20799;-58
2023/11/14 08:33:20;;;;;;;14.90;5.80;;;11.40;1.00;;;;;;5137931;27;20459;-58
2023/11/14 08:35:48;;;;;;;22.00;6.23;;;11.50;1.00;;;;;;5137768;27;20462;-58
2023/11/14 08:38:15;;;;;;;21.67;6.67;;;11.40;1.00;;;;;;5138441;27;20486;-58
2023/11/14 08:40:43;;;;;;;21.87;6.83;;;11.50;1.00;;;;;;5138981;27;20887;-57
2023/11/14 08:43:12;;;;;;;22.27;5.70;;;11.50;1.00;;;;;;5138336;27;20734;-59
2023/11/14 08:45:39;;;;;;;18.50;6.40;;;11.40;1.00;;;;;;5138473;27;20455;-59
2023/11/14 08:48:08;;;;;;;21.77;5.10;;;11.40;1.00;;;;;;5137679;27;20478;-58
2023/11/14 08:50:37;;;;;;;20.20;6.70;;;11.40;1.00;;;;;;5138623;27;20458;-59
2023/11/14 08:53:04;;;;;;;20.37;5.70;;;11.50;1.00;;;;;;5137990;27;20883;-58
2023/11/14 08:55:33;;;;;;;14.43;6.50;;;11.60;1.00;;;;;;5137693;27;20486;-56
2023/11/14 08:58:00;;;;;;;18.20;5.90;;;11.60;1.00;;;;;;5136716;27;20494;-59
2023/11/14 09:00:30;;;;;;;15.50;5.47;;;11.70;1.00;;;;;;5136740;27;20864;-58
2023/11/14 09:02:58;;;;;;;12.73;4.97;;;11.70;1.00;;;;;;5136989;27;20876;-57
2023/11/14 09:05:27;;;;;;;19.17;6.03;;;11.70;1.00;;;;;;5136939;27;20496;-59
2023/11/14 09:07:55;;;;;;;18.57;5.43;;;11.70;1.00;;;;;;5137312;27;20931;-60
2023/11/14 09:10:23;;;;;;;23.23;5.80;;;11.70;1.00;;;;;;5137632;27;20459;-58
2023/11/14 09:12:51;;;;;;;25.07;6.83;;;11.70;1.00;;;;;;5138239;27;20900;-58
2023/11/14 09:15:20;;;;;;;23.23;5.80;;;11.70;1.00;;;;;;5137545;27;20459;-57
2023/11/14 09:17:49;;;;;;;19.10;5.60;;;11.60;1.00;;;;;;5137969;27;20491;-63
2023/11/14 09:20:16;;;;;;;14.50;4.87;;;11.60;99.90;;;;;;5137204;27;20466;-59
2023/11/14 09:22:44;;;;;;;21.53;6.13;;;11.70;99.90;;;;;;5137008;27;20549;-58
2023/11/14 09:25:11;;;;;;;16.33;4.60;;;11.70;1.00;;;;;;5136651;27;20465;-59
2023/11/14 09:27:39;;;;;;;21.50;5.53;;;11.70;1.00;;;;;;5136729;27;20549;-59
2023/11/14 09:30:08;;;;;;;12.70;4.83;;;11.70;1.00;;;;;;5136406;27;20459;-58
2023/11/14 09:32:36;;;;;;;20.93;5.00;;;11.60;1.00;;;;;;5136914;27;20936;-59
2023/11/14 09:35:05;;;;;;;15.83;5.03;;;11.60;1.00;;;;;;5137393;27;20886;-58
2023/11/14 09:37:33;;;;;;;18.90;5.10;;;11.60;1.00;;;;;;5138441;28;20577;-59
2023/11/14 09:40:02;;;;;;;21.27;5.47;;;11.50;99.90;;;;;;5135249;28;20502;-62
2023/11/14 09:42:32;;;;;;;19.77;7.50;;;11.40;93.40;;;;;;5136366;28;20467;-65
2023/11/14 09:45:00;;;;;;;20.17;6.80;;;11.30;1.00;;;;;;5135886;28;20470;-64
2023/11/14 09:47:28;;;;;;;17.77;5.33;;;11.20;28.00;;;;;;5136420;28;20454;-64
2023/11/14 09:49:55;;;;;;;19.60;6.80;;;11.20;83.00;;;;;;5134391;28;20467;-65
2023/11/14 09:52:24;;;;;;;16.07;5.20;;;11.20;1.00;;;;;;5136707;28;20459;-65
2023/11/14 09:54:52;;;;;;;16.30;6.67;;;11.30;99.90;;;;;;5136189;28;20502;-66
2023/11/14 09:57:20;;;;;;;25.80;6.20;;;11.40;1.00;;;;;;5128886;28;20491;-65
2023/11/14 09:59:47;;;;;;;19.40;6.80;;;11.50;3.50;;;;;;5134049;27;20557;-64
2023/11/14 10:02:15;;;;;;;15.23;5.20;;;11.50;1.00;;;;;;5140880;27;20499;-64
2023/11/14 10:04:43;;;;;;;24.17;5.80;;;11.50;99.90;;;;;;5125855;27;20521;-63
2023/11/14 10:07:14;;;;;;;17.90;5.90;;;11.40;99.90;;;;;;5132417;27;20556;-63
2023/11/14 10:09:44;;;;;;;21.50;5.80;;;11.40;99.90;;;;;;5138844;27;20477;-62
2023/11/14 10:12:12;;;;;;;13.93;4.90;;;11.40;99.90;;;;;;5140179;27;20618;-62
2023/11/14 10:14:45;;;;;;;15.87;5.87;;;11.50;99.90;;;;;;5140243;27;20511;-62
2023/11/14 10:17:16;;;;;;;20.03;5.20;;;11.50;1.00;;;;;;5141214;27;20934;-62
2023/11/14 10:20:00;;;;;;;17.70;5.67;;;11.60;1.00;;;;;;5140524;27;20467;-61
2023/11/14 10:22:28;;;;;;;15.63;5.77;;;11.60;1.00;;;;;;5140321;27;20966;-62
2023/11/14 10:24:58;;;;;;;17.53;5.47;;;11.70;1.00;;;;;;5140066;27;20450;-62
2023/11/14 10:27:29;;;;;;;25.23;6.57;;;11.70;1.00;;;;;;5140180;27;20454;-62
2023/11/14 10:29:56;;;;;;;23.03;6.00;;;11.60;1.00;;;;;;5139254;27;20490;-62
2023/11/14 10:32:23;;;;;;;18.37;4.83;;;11.60;1.00;;;;;;5139793;27;20549;-62
2023/11/14 10:34:52;;;;;;;14.17;4.60;;;11.60;1.00;;;;;;5140958;27;20545;-61
2023/11/14 10:37:33;;;;;;;21.73;6.00;;;11.60;1.00;;;;;;5141103;27;20490;-61
2023/11/14 10:40:06;;;;;;;17.57;4.80;;;11.60;1.00;;;;;;5139687;27;20578;-62
2023/11/14 10:42:34;;;;;;;15.50;4.30;;;11.60;1.00;;;;;;5141068;27;20515;-61
2023/11/14 10:45:06;;;;;;;13.73;4.63;;;11.70;1.00;;;;;;5141308;27;20454;-63
2023/11/14 10:47:40;;;;;;;18.73;5.50;;;11.70;1.00;;;;;;5140560;27;20466;-61
2023/11/14 10:50:24;;;;;;;12.67;4.87;;;11.70;1.00;;;;;;5139572;27;20932;-61
2023/11/14 10:52:53;;;;;;;14.10;4.80;;;11.70;1.00;;;;;;5139924;27;20454;-61
2023/11/14 10:55:24;;;;;;;13.07;4.63;;;11.70;99.90;;;;;;5139668;27;20450;-62
2023/11/14 10:57:52;;;;;;;18.53;5.67;;;11.70;99.90;;;;;;5139061;27;20500;-62
2023/11/14 11:00:21;;;;;;;18.27;5.60;;;11.70;1.00;;;;;;5125237;27;20566;-61
2023/11/14 11:02:51;;;;;;;12.90;4.90;;;11.80;1.00;;;;;;5119359;28;20498;-62
2023/11/14 11:05:27;;;;;;;23.60;5.50;;;11.70;1.00;;;;;;5119167;28;20899;-61
2023/11/14 11:07:55;;;;;;;14.57;4.93;;;11.70;1.00;;;;;;5118100;28;20447;-61
2023/11/14 11:10:24;;;;;;;21.27;4.87;;;11.70;1.00;;;;;;5117455;28;20616;-60
2023/11/14 11:12:53;;;;;;;20.43;6.03;;;11.70;1.00;;;;;;5118515;28;20551;-60
2023/11/14 11:15:20;;;;;;;22.23;7.90;;;11.70;1.00;;;;;;5119047;28;20812;-61
2023/11/14 11:17:48;;;;;;;26.10;6.83;;;11.70;11.80;;;;;;5118545;28;20497;-60
2023/11/14 11:20:24;;;;;;;17.20;5.37;;;11.70;91.90;;;;;;5119736;28;20463;-60
2023/11/14 11:23:07;;;;;;;11.63;5.13;;;11.70;99.90;;;;;;5119772;28;20490;-61
2023/11/14 11:25:38;;;;;;;13.53;6.40;;;11.60;99.90;;;;;;5120260;28;20463;-61
2023/11/14 11:28:35;;;;;;;10.43;3.87;;;11.60;99.90;;;;;;5120087;28;20885;-61
2023/11/14 11:31:15;;;;;;;15.37;5.07;;;11.60;1.00;;;;;;5119770;28;20459;-60
2023/11/14 11:33:44;;;;;;;13.17;3.63;;;11.50;1.00;;;;;;5120251;28;20741;-63
2023/11/14 11:36:30;;;;;;;12.10;4.23;;;11.50;93.00;;;;;;5119632;28;20482;-66
2023/11/14 11:38:59;;;;;;;10.77;4.80;;;11.30;15.00;;;;;;5119526;28;20503;-65
2023/11/14 11:41:31;;;;;;;11.67;3.53;;;11.30;99.90;;;;;;5119785;28;20539;-67
2023/11/14 11:44:08;;;;;;;8.53;3.40;;;11.20;1.00;;;;;;5119688;28;20489;-65
2023/11/14 11:46:42;;;;;;;16.57;4.37;;;11.10;99.90;;;;;;5132177;27;20501;-68
2023/11/14 11:49:33;;;;;;;14.20;4.13;;;11.10;99.90;;;;;;5139995;27;20458;-65
2023/11/14 11:52:14;;;;;;;17.43;6.77;;;11.00;1.00;;;;;;5124392;27;20466;-67
2023/11/14 11:54:41;;;;;;;14.37;5.00;;;11.00;1.00;;;;;;5139905;27;20461;-67
2023/11/14 11:57:11;;;;;;;16.80;5.03;;;11.00;1.00;;;;;;5140044;27;20580;-65
2023/11/14 12:00:17;;;;;;;19.10;5.17;;;11.00;1.00;;;;;;5139757;27;20516;-66
2023/11/14 12:02:48;;;;;;;17.43;5.03;;;11.00;1.00;;;;;;5139808;27;20783;-66
2023/11/14 12:05:18;;;;;;;14.33;4.50;;;11.00;99.90;;;;;;5139797;27;20548;-65
2023/11/14 12:07:47;;;;;;;18.57;5.37;;;11.10;99.90;;;;;;5139740;27;20455;-65
2023/11/14 12:10:18;;;;;;;11.07;4.23;;;11.10;95.50;;;;;;5139456;27;20954;-65
2023/11/14 12:12:47;;;;;;;17.00;5.30;;;11.10;99.90;;;;;;5139842;27;20458;-64
2023/11/14 12:15:20;;;;;;;19.33;4.97;;;11.10;1.00;;;;;;5138711;27;20451;-66
2023/11/14 12:17:50;;;;;;;13.10;4.33;;;11.20;1.00;;;;;;5139138;27;21117;-66
2023/11/14 12:20:18;;;;;;;12.83;5.53;;;11.20;1.00;;;;;;5139597;27;20793;-65
2023/11/14 12:22:47;;;;;;;12.37;4.53;;;11.20;20.70;;;;;;5138927;27;20549;-65
2023/11/14 12:25:14;;;;;;;11.30;3.80;;;11.20;1.00;;;;;;5139572;27;20454;-66
2023/11/14 12:27:47;;;;;;;13.60;4.30;;;11.20;99.90;;;;;;5139553;27;20482;-63
2023/11/14 12:30:17;;;;;;;14.33;4.93;;;11.30;99.90;;;;;;5138361;27;20493;-64
2023/11/14 12:32:45;;;;;;;10.40;5.00;;;11.30;99.90;;;;;;5138865;27;20459;-65
2023/11/14 12:35:12;;;;;;;19.50;4.77;;;11.30;1.00;;;;;;5138824;27;20459;-64
2023/11/14 12:37:40;;;;;;;6.77;2.97;;;11.40;1.00;;;;;;5138496;27;20486;-64
2023/11/14 12:40:09;;;;;;;8.83;3.40;;;11.40;1.00;;;;;;5137855;27;20569;-64
2023/11/14 12:42:41;;;;;;;9.77;3.93;;;11.40;1.00;;;;;;5138946;27;20465;-64
2023/11/14 12:45:09;;;;;;;10.80;3.87;;;11.30;1.00;;;;;;5139166;27;20459;-64
2023/11/14 12:47:41;;;;;;;11.93;3.30;;;11.40;95.10;;;;;;5139228;27;20447;-65
2023/11/14 12:50:10;;;;;;;8.87;4.00;;;11.30;1.00;;;;;;5138468;27;20503;-64